AWE714 KPHX-KSAN
Flight info
| Callsign | AWE714 |
|---|---|
| Flight time | 0h 48m |
| Altitude | 36000 |
| Route | FYRBD1 MOHAK J2 HOGGZ LUCKI1 |
| Aircraft | A319/M-SDE3FGHIRWY/LB1 |
Departure
| Time | 2026-05-07 17:14 |
|---|---|
| Airport | Phoenix Sky Harbor International Airport (KPHX) |
Arrival
| Time | 2026-05-07 18:03 |
|---|---|
| Airport | San Diego International Airport (KSAN) |
| Time | Latitude | Longitude | Altitude | Speed | Heading |
|---|---|---|---|---|---|
| 2026-05-07 16:46 | 33.43741 | -112.00827 | 1174 ft | 0 kts | 270° |
| 2026-05-07 16:46 | 33.43741 | -112.00825 | 1175 ft | 0 kts | 270° |
| 2026-05-07 17:02 | 33.43741 | -112.00820 | 1172 ft | 3 kts | 270° |
| 2026-05-07 17:02 | 33.43741 | -112.00788 | 1166 ft | 4 kts | 273° |
| 2026-05-07 17:03 | 33.43737 | -112.00756 | 1170 ft | 4 kts | 292° |
| 2026-05-07 17:03 | 33.43725 | -112.00738 | 1173 ft | 2 kts | 358° |
| 2026-05-07 17:03 | 33.43723 | -112.00737 | 1172 ft | 0 kts | 360° |
| 2026-05-07 17:05 | 33.43737 | -112.00737 | 1170 ft | 4 kts | 0° |
| 2026-05-07 17:05 | 33.43776 | -112.00737 | 1167 ft | 8 kts | 0° |
| 2026-05-07 17:06 | 33.43845 | -112.00737 | 1171 ft | 12 kts | 0° |
| 2026-05-07 17:06 | 33.43901 | -112.00672 | 1167 ft | 14 kts | 86° |
| 2026-05-07 17:06 | 33.43902 | -112.00549 | 1168 ft | 16 kts | 90° |
| 2026-05-07 17:06 | 33.43898 | -112.00406 | 1168 ft | 17 kts | 114° |
| 2026-05-07 17:07 | 33.43790 | -112.00381 | 1167 ft | 17 kts | 180° |
| 2026-05-07 17:07 | 33.43672 | -112.00380 | 1167 ft | 17 kts | 180° |
| 2026-05-07 17:07 | 33.43551 | -112.00380 | 1169 ft | 17 kts | 180° |
| 2026-05-07 17:07 | 33.43430 | -112.00381 | 1167 ft | 18 kts | 181° |
| 2026-05-07 17:08 | 33.43306 | -112.00382 | 1169 ft | 18 kts | 179° |
| 2026-05-07 17:08 | 33.43216 | -112.00433 | 1171 ft | 16 kts | 261° |
| 2026-05-07 17:08 | 33.43214 | -112.00564 | 1169 ft | 16 kts | 270° |
| 2026-05-07 17:08 | 33.43214 | -112.00696 | 1169 ft | 16 kts | 270° |
| 2026-05-07 17:09 | 33.43214 | -112.00832 | 1166 ft | 17 kts | 270° |
| 2026-05-07 17:09 | 33.43215 | -112.00976 | 1165 ft | 18 kts | 270° |
| 2026-05-07 17:09 | 33.43214 | -112.01123 | 1169 ft | 18 kts | 270° |
| 2026-05-07 17:09 | 33.43214 | -112.01274 | 1164 ft | 18 kts | 270° |
| 2026-05-07 17:10 | 33.43214 | -112.01430 | 1167 ft | 19 kts | 270° |
| 2026-05-07 17:10 | 33.43214 | -112.01588 | 1166 ft | 19 kts | 270° |
| 2026-05-07 17:10 | 33.43214 | -112.01746 | 1166 ft | 19 kts | 270° |
| 2026-05-07 17:10 | 33.43215 | -112.01907 | 1166 ft | 19 kts | 270° |
| 2026-05-07 17:11 | 33.43215 | -112.02068 | 1165 ft | 19 kts | 270° |
| 2026-05-07 17:11 | 33.43216 | -112.02229 | 1165 ft | 19 kts | 270° |
| 2026-05-07 17:11 | 33.43216 | -112.02393 | 1164 ft | 20 kts | 270° |
| 2026-05-07 17:11 | 33.43215 | -112.02551 | 1164 ft | 15 kts | 269° |
| 2026-05-07 17:12 | 33.43214 | -112.02624 | 1165 ft | 7 kts | 268° |
| 2026-05-07 17:12 | 33.43200 | -112.02687 | 1161 ft | 10 kts | 229° |
| 2026-05-07 17:12 | 33.43119 | -112.02685 | 1161 ft | 14 kts | 139° |
| 2026-05-07 17:12 | 33.43106 | -112.02631 | 1161 ft | 0 kts | 89° |
| 2026-05-07 17:13 | 33.43107 | -112.02604 | 1162 ft | 20 kts | 90° |
| 2026-05-07 17:14 | 33.43107 | -112.02121 | 1165 ft | 92 kts | 90° |
| 2026-05-07 17:14 | 33.43106 | -112.01132 | 1167 ft | 144 kts | 90° |
| 2026-05-07 17:14 | 33.43103 | -111.99828 | 1534 ft | 157 kts | 89° |
| 2026-05-07 17:14 | 33.43139 | -111.98541 | 2121 ft | 154 kts | 86° |
| 2026-05-07 17:15 | 33.43194 | -111.97267 | 2684 ft | 153 kts | 86° |
| 2026-05-07 17:15 | 33.43252 | -111.95958 | 3108 ft | 166 kts | 86° |
| 2026-05-07 17:15 | 33.43305 | -111.94515 | 3509 ft | 181 kts | 86° |
| 2026-05-07 17:15 | 33.43357 | -111.92928 | 3850 ft | 201 kts | 86° |
| 2026-05-07 17:16 | 33.43410 | -111.91155 | 4231 ft | 223 kts | 87° |
| 2026-05-07 17:16 | 33.43455 | -111.89278 | 5030 ft | 227 kts | 88° |
| 2026-05-07 17:16 | 33.43146 | -111.87410 | 5814 ft | 236 kts | 115° |
| 2026-05-07 17:16 | 33.42035 | -111.85940 | 6612 ft | 245 kts | 144° |
| 2026-05-07 17:17 | 33.40479 | -111.85063 | 7405 ft | 251 kts | 162° |
| 2026-05-07 17:17 | 33.38739 | -111.84769 | 8257 ft | 254 kts | 175° |
| 2026-05-07 17:17 | 33.36968 | -111.84904 | 9097 ft | 259 kts | 198° |
| 2026-05-07 17:17 | 33.35486 | -111.86110 | 9890 ft | 264 kts | 233° |
| 2026-05-07 17:18 | 33.34839 | -111.88141 | 10607 ft | 266 kts | 269° |
| 2026-05-07 17:18 | 33.35133 | -111.90320 | 11362 ft | 268 kts | 287° |
| 2026-05-07 17:18 | 33.35533 | -111.92513 | 12114 ft | 273 kts | 282° |
| 2026-05-07 17:18 | 33.35836 | -111.94855 | 12466 ft | 297 kts | 279° |
| 2026-05-07 17:19 | 33.36097 | -111.97407 | 12744 ft | 321 kts | 278° |
| 2026-05-07 17:19 | 33.36069 | -112.00168 | 13037 ft | 344 kts | 261° |
| 2026-05-07 17:19 | 33.35314 | -112.02922 | 13660 ft | 354 kts | 244° |
| 2026-05-07 17:19 | 33.33955 | -112.05410 | 14323 ft | 360 kts | 233° |
| 2026-05-07 17:20 | 33.32465 | -112.07836 | 14960 ft | 365 kts | 233° |
| 2026-05-07 17:20 | 33.30955 | -112.10302 | 15614 ft | 370 kts | 233° |
| 2026-05-07 17:20 | 33.29429 | -112.12796 | 16271 ft | 374 kts | 233° |
| 2026-05-07 17:20 | 33.27877 | -112.15326 | 16884 ft | 379 kts | 233° |
| 2026-05-07 17:21 | 33.26305 | -112.17879 | 17514 ft | 385 kts | 233° |
| 2026-05-07 17:21 | 33.24733 | -112.20438 | 18147 ft | 390 kts | 233° |
| 2026-05-07 17:21 | 33.23119 | -112.23065 | 18726 ft | 394 kts | 233° |
| 2026-05-07 17:21 | 33.21465 | -112.25751 | 19290 ft | 399 kts | 233° |
| 2026-05-07 17:22 | 33.19832 | -112.28393 | 19844 ft | 403 kts | 233° |
| 2026-05-07 17:22 | 33.18157 | -112.31096 | 20388 ft | 407 kts | 233° |
| 2026-05-07 17:22 | 33.16467 | -112.33830 | 20956 ft | 412 kts | 233° |
| 2026-05-07 17:22 | 33.14754 | -112.36608 | 21459 ft | 417 kts | 233° |
| 2026-05-07 17:23 | 33.13025 | -112.39413 | 21983 ft | 422 kts | 233° |
| 2026-05-07 17:23 | 33.11273 | -112.42245 | 22508 ft | 427 kts | 233° |
| 2026-05-07 17:23 | 33.09501 | -112.45107 | 23048 ft | 431 kts | 233° |
| 2026-05-07 17:23 | 33.07708 | -112.48001 | 23561 ft | 436 kts | 233° |
| 2026-05-07 17:24 | 33.05897 | -112.50921 | 24002 ft | 440 kts | 233° |
| 2026-05-07 17:24 | 33.04064 | -112.53867 | 24460 ft | 444 kts | 233° |
| 2026-05-07 17:24 | 33.02218 | -112.56831 | 24909 ft | 447 kts | 233° |
| 2026-05-07 17:24 | 33.00361 | -112.59814 | 25349 ft | 450 kts | 233° |
| 2026-05-07 17:25 | 32.98492 | -112.62822 | 25780 ft | 453 kts | 234° |
| 2026-05-07 17:25 | 32.96788 | -112.65986 | 26195 ft | 455 kts | 244° |
| 2026-05-07 17:25 | 32.95570 | -112.69465 | 26603 ft | 456 kts | 255° |
| 2026-05-07 17:25 | 32.94879 | -112.73135 | 27011 ft | 455 kts | 264° |
| 2026-05-07 17:26 | 32.94387 | -112.76866 | 27422 ft | 458 kts | 264° |
| 2026-05-07 17:26 | 32.93885 | -112.80621 | 27836 ft | 460 kts | 264° |
| 2026-05-07 17:26 | 32.93374 | -112.84395 | 28254 ft | 463 kts | 264° |
| 2026-05-07 17:26 | 32.92859 | -112.88189 | 28651 ft | 466 kts | 264° |
| 2026-05-07 17:27 | 32.92338 | -112.92008 | 29045 ft | 469 kts | 264° |
| 2026-05-07 17:27 | 32.91812 | -112.95847 | 29437 ft | 471 kts | 264° |
| 2026-05-07 17:27 | 32.91282 | -112.99709 | 29813 ft | 474 kts | 264° |
| 2026-05-07 17:27 | 32.90750 | -113.03592 | 30169 ft | 477 kts | 264° |
| 2026-05-07 17:28 | 32.90225 | -113.07437 | 30487 ft | 479 kts | 264° |
| 2026-05-07 17:28 | 32.89689 | -113.11354 | 30796 ft | 481 kts | 264° |
| 2026-05-07 17:28 | 32.89151 | -113.15280 | 31187 ft | 480 kts | 264° |
| 2026-05-07 17:28 | 32.88611 | -113.19206 | 31536 ft | 481 kts | 264° |
| 2026-05-07 17:29 | 32.88067 | -113.23139 | 31868 ft | 483 kts | 264° |
| 2026-05-07 17:29 | 32.87519 | -113.27083 | 32207 ft | 483 kts | 264° |
| 2026-05-07 17:29 | 32.86970 | -113.31016 | 32664 ft | 481 kts | 264° |
| 2026-05-07 17:29 | 32.86421 | -113.34933 | 33124 ft | 479 kts | 264° |
| 2026-05-07 17:30 | 32.85875 | -113.38837 | 33564 ft | 478 kts | 264° |
| 2026-05-07 17:30 | 32.85330 | -113.42729 | 34005 ft | 476 kts | 264° |
| 2026-05-07 17:30 | 32.84788 | -113.46596 | 34440 ft | 473 kts | 264° |
| 2026-05-07 17:30 | 32.84250 | -113.50438 | 34865 ft | 469 kts | 264° |
| 2026-05-07 17:31 | 32.83714 | -113.54257 | 35253 ft | 467 kts | 264° |
| 2026-05-07 17:31 | 32.83180 | -113.58057 | 35658 ft | 465 kts | 264° |
| 2026-05-07 17:31 | 32.82826 | -113.60566 | 35866 ft | 465 kts | 264° |
| 2026-05-07 17:31 | 32.82292 | -113.64346 | 35966 ft | 461 kts | 264° |
| 2026-05-07 17:32 | 32.81241 | -113.71754 | 35976 ft | 451 kts | 264° |
| 2026-05-07 17:32 | 32.80197 | -113.79069 | 35968 ft | 446 kts | 264° |
| 2026-05-07 17:33 | 32.79156 | -113.86323 | 35968 ft | 444 kts | 264° |
| 2026-05-07 17:33 | 32.78117 | -113.93558 | 35961 ft | 444 kts | 264° |
| 2026-05-07 17:34 | 32.77543 | -114.00816 | 35948 ft | 439 kts | 273° |
| 2026-05-07 17:34 | 32.77485 | -114.08076 | 35936 ft | 439 kts | 274° |
| 2026-05-07 17:35 | 32.77695 | -114.15290 | 35944 ft | 436 kts | 277° |
| 2026-05-07 17:35 | 32.78076 | -114.22467 | 35954 ft | 435 kts | 277° |
| 2026-05-07 17:36 | 32.78417 | -114.29637 | 35946 ft | 435 kts | 277° |
| 2026-05-07 17:36 | 32.78720 | -114.36808 | 35971 ft | 433 kts | 279° |
| 2026-05-07 17:37 | 32.80133 | -114.43663 | 35992 ft | 426 kts | 291° |
| 2026-05-07 17:37 | 32.81965 | -114.50308 | 36002 ft | 425 kts | 291° |
| 2026-05-07 17:38 | 32.83818 | -114.57029 | 35997 ft | 425 kts | 291° |
| 2026-05-07 17:38 | 32.85644 | -114.63700 | 36001 ft | 424 kts | 291° |
| 2026-05-07 17:39 | 32.87399 | -114.70353 | 35997 ft | 426 kts | 286° |
| 2026-05-07 17:39 | 32.87837 | -114.77419 | 35994 ft | 433 kts | 272° |
| 2026-05-07 17:40 | 32.87756 | -114.81025 | 35366 ft | 440 kts | 272° |
| 2026-05-07 17:40 | 32.87675 | -114.84664 | 34827 ft | 438 kts | 272° |
| 2026-05-07 17:40 | 32.87593 | -114.88279 | 34315 ft | 436 kts | 272° |
| 2026-05-07 17:40 | 32.87510 | -114.91878 | 33772 ft | 434 kts | 272° |
| 2026-05-07 17:41 | 32.87428 | -114.95453 | 33256 ft | 431 kts | 272° |
| 2026-05-07 17:41 | 32.87348 | -114.99005 | 32758 ft | 428 kts | 272° |
| 2026-05-07 17:41 | 32.87264 | -115.02530 | 32247 ft | 425 kts | 272° |
| 2026-05-07 17:41 | 32.87179 | -115.06032 | 31765 ft | 422 kts | 272° |
| 2026-05-07 17:42 | 32.87095 | -115.09503 | 31289 ft | 419 kts | 272° |
| 2026-05-07 17:42 | 32.87010 | -115.12960 | 30813 ft | 417 kts | 272° |
| 2026-05-07 17:42 | 32.86928 | -115.16395 | 30353 ft | 414 kts | 272° |
| 2026-05-07 17:42 | 32.86847 | -115.19811 | 29864 ft | 413 kts | 272° |
| 2026-05-07 17:43 | 32.86764 | -115.23211 | 29399 ft | 409 kts | 272° |
| 2026-05-07 17:43 | 32.86679 | -115.26586 | 28965 ft | 406 kts | 272° |
| 2026-05-07 17:43 | 32.86592 | -115.29929 | 28532 ft | 403 kts | 272° |
| 2026-05-07 17:43 | 32.86502 | -115.33254 | 28076 ft | 401 kts | 271° |
| 2026-05-07 17:44 | 32.86158 | -115.36506 | 27675 ft | 401 kts | 264° |
| 2026-05-07 17:44 | 32.85693 | -115.39816 | 27224 ft | 399 kts | 264° |
| 2026-05-07 17:44 | 32.85241 | -115.43022 | 26782 ft | 398 kts | 264° |
| 2026-05-07 17:44 | 32.84784 | -115.46261 | 26329 ft | 396 kts | 264° |
| 2026-05-07 17:45 | 32.84328 | -115.49480 | 25876 ft | 395 kts | 264° |
| 2026-05-07 17:45 | 32.83841 | -115.52694 | 25396 ft | 395 kts | 263° |
| 2026-05-07 17:45 | 32.83325 | -115.55896 | 24925 ft | 394 kts | 263° |
| 2026-05-07 17:45 | 32.82791 | -115.59087 | 24453 ft | 393 kts | 262° |
| 2026-05-07 17:46 | 32.82249 | -115.62275 | 23978 ft | 393 kts | 262° |
| 2026-05-07 17:46 | 32.81713 | -115.65457 | 23509 ft | 392 kts | 262° |
| 2026-05-07 17:46 | 32.81185 | -115.68627 | 23004 ft | 390 kts | 262° |
| 2026-05-07 17:46 | 32.80667 | -115.71777 | 22540 ft | 387 kts | 262° |
| 2026-05-07 17:47 | 32.80153 | -115.74902 | 22077 ft | 385 kts | 262° |
| 2026-05-07 17:47 | 32.79639 | -115.78011 | 21619 ft | 383 kts | 262° |
| 2026-05-07 17:47 | 32.79125 | -115.81106 | 21164 ft | 381 kts | 262° |
| 2026-05-07 17:47 | 32.78618 | -115.84191 | 20710 ft | 379 kts | 263° |
| 2026-05-07 17:48 | 32.78330 | -115.87280 | 20263 ft | 375 kts | 269° |
| 2026-05-07 17:48 | 32.78109 | -115.90364 | 19822 ft | 374 kts | 268° |
| 2026-05-07 17:48 | 32.77885 | -115.93439 | 19375 ft | 373 kts | 268° |
| 2026-05-07 17:48 | 32.77654 | -115.96508 | 18928 ft | 373 kts | 268° |
| 2026-05-07 17:49 | 32.77420 | -115.99569 | 18490 ft | 372 kts | 268° |
| 2026-05-07 17:49 | 32.77187 | -116.02631 | 17988 ft | 372 kts | 268° |
| 2026-05-07 17:49 | 32.76954 | -116.05696 | 17455 ft | 372 kts | 268° |
| 2026-05-07 17:49 | 32.76722 | -116.08748 | 17054 ft | 369 kts | 268° |
| 2026-05-07 17:50 | 32.76490 | -116.11778 | 16601 ft | 368 kts | 268° |
| 2026-05-07 17:50 | 32.76261 | -116.14776 | 16261 ft | 363 kts | 268° |
| 2026-05-07 17:50 | 32.76033 | -116.17765 | 15848 ft | 361 kts | 268° |
| 2026-05-07 17:50 | 32.75807 | -116.20719 | 15490 ft | 358 kts | 268° |
| 2026-05-07 17:51 | 32.75581 | -116.23656 | 15109 ft | 356 kts | 268° |
| 2026-05-07 17:51 | 32.75357 | -116.26577 | 14734 ft | 354 kts | 268° |
| 2026-05-07 17:51 | 32.75133 | -116.29469 | 14269 ft | 349 kts | 268° |
| 2026-05-07 17:51 | 32.74914 | -116.32277 | 14050 ft | 336 kts | 268° |
| 2026-05-07 17:52 | 32.74701 | -116.35010 | 13621 ft | 330 kts | 268° |
| 2026-05-07 17:52 | 32.74495 | -116.37670 | 13109 ft | 327 kts | 267° |
| 2026-05-07 17:52 | 32.74287 | -116.40350 | 12628 ft | 323 kts | 267° |
| 2026-05-07 17:52 | 32.74079 | -116.42988 | 12123 ft | 320 kts | 267° |
| 2026-05-07 17:53 | 32.73871 | -116.45613 | 11709 ft | 318 kts | 267° |
| 2026-05-07 17:53 | 32.73665 | -116.48213 | 11327 ft | 316 kts | 267° |
| 2026-05-07 17:53 | 32.73462 | -116.50798 | 11053 ft | 312 kts | 266° |
| 2026-05-07 17:53 | 32.73238 | -116.53356 | 10695 ft | 311 kts | 265° |
| 2026-05-07 17:54 | 32.72996 | -116.55895 | 10337 ft | 308 kts | 265° |
| 2026-05-07 17:54 | 32.72745 | -116.58414 | 9788 ft | 307 kts | 264° |
| 2026-05-07 17:54 | 32.72491 | -116.60923 | 9278 ft | 304 kts | 264° |
| 2026-05-07 17:54 | 32.72242 | -116.63415 | 8884 ft | 303 kts | 265° |
| 2026-05-07 17:55 | 32.71999 | -116.65893 | 8496 ft | 300 kts | 265° |
| 2026-05-07 17:55 | 32.71781 | -116.68347 | 8109 ft | 299 kts | 266° |
| 2026-05-07 17:55 | 32.71586 | -116.70797 | 7730 ft | 297 kts | 266° |
| 2026-05-07 17:55 | 32.71403 | -116.73235 | 7350 ft | 295 kts | 266° |
| 2026-05-07 17:56 | 32.71222 | -116.75658 | 6973 ft | 294 kts | 266° |
| 2026-05-07 17:56 | 32.71036 | -116.78071 | 6597 ft | 292 kts | 266° |
| 2026-05-07 17:56 | 32.70850 | -116.80450 | 6202 ft | 285 kts | 266° |
| 2026-05-07 17:56 | 32.70463 | -116.82703 | 5853 ft | 274 kts | 252° |
| 2026-05-07 17:57 | 32.69808 | -116.84779 | 5549 ft | 263 kts | 251° |
| 2026-05-07 17:57 | 32.69393 | -116.86107 | 5345 ft | 256 kts | 250° |
| 2026-05-07 17:57 | 32.68590 | -116.88692 | 4964 ft | 243 kts | 251° |
| 2026-05-07 17:57 | 32.68033 | -116.90553 | 4675 ft | 235 kts | 252° |
| 2026-05-07 17:58 | 32.67509 | -116.92360 | 4397 ft | 228 kts | 255° |
| 2026-05-07 17:58 | 32.67368 | -116.94175 | 4137 ft | 216 kts | 279° |
| 2026-05-07 17:58 | 32.67727 | -116.95848 | 3935 ft | 203 kts | 289° |
| 2026-05-07 17:58 | 32.68124 | -116.97433 | 3666 ft | 198 kts | 288° |
| 2026-05-07 17:59 | 32.68502 | -116.98980 | 3435 ft | 193 kts | 289° |
| 2026-05-07 17:59 | 32.68874 | -117.00507 | 3202 ft | 191 kts | 288° |
| 2026-05-07 17:59 | 32.69238 | -117.02012 | 2985 ft | 189 kts | 287° |
| 2026-05-07 17:59 | 32.69601 | -117.03505 | 2770 ft | 188 kts | 288° |
| 2026-05-07 18:00 | 32.69963 | -117.04992 | 2534 ft | 186 kts | 287° |
| 2026-05-07 18:00 | 32.70310 | -117.06411 | 2320 ft | 170 kts | 287° |
| 2026-05-07 18:00 | 32.70633 | -117.07739 | 2105 ft | 164 kts | 286° |
| 2026-05-07 18:00 | 32.70934 | -117.08980 | 1927 ft | 147 kts | 285° |
| 2026-05-07 18:01 | 32.71199 | -117.10099 | 1697 ft | 137 kts | 284° |
| 2026-05-07 18:01 | 32.71449 | -117.11159 | 1459 ft | 130 kts | 285° |
| 2026-05-07 18:01 | 32.71695 | -117.12195 | 1268 ft | 129 kts | 284° |
| 2026-05-07 18:01 | 32.71945 | -117.13213 | 1076 ft | 129 kts | 285° |
| 2026-05-07 18:02 | 32.72444 | -117.15239 | 680 ft | 126 kts | 285° |
| 2026-05-07 18:02 | 32.72687 | -117.16240 | 433 ft | 126 kts | 287° |
| 2026-05-07 18:02 | 32.72929 | -117.17226 | 207 ft | 126 kts | 286° |
| 2026-05-07 18:03 | 32.73172 | -117.18228 | 48 ft | 126 kts | 285° |
| 2026-05-07 18:03 | 32.73390 | -117.19119 | 24 ft | 84 kts | 286° |
| 2026-05-07 18:03 | 32.73490 | -117.19524 | 27 ft | 39 kts | 286° |
| 2026-05-07 18:03 | 32.73533 | -117.19751 | 30 ft | 19 kts | 260° |
| 2026-05-07 18:04 | 32.73478 | -117.19838 | 28 ft | 11 kts | 166° |
| 2026-05-07 18:04 | 32.73453 | -117.19788 | 27 ft | 2 kts | 105° |
| 2026-05-07 18:04 | 32.73453 | -117.19787 | 27 ft | 0 kts | 105° |
| 2026-05-07 18:04 | 32.73447 | -117.19763 | 27 ft | 6 kts | 105° |
| 2026-05-07 18:05 | 32.73420 | -117.19700 | 28 ft | 10 kts | 145° |
| 2026-05-07 18:05 | 32.73346 | -117.19710 | 24 ft | 8 kts | 200° |
| 2026-05-07 18:05 | 32.73336 | -117.19761 | 24 ft | 7 kts | 281° |
| 2026-05-07 18:05 | 32.73339 | -117.19790 | 24 ft | 1 kts | 278° |
| 2026-05-07 18:06 | 32.73340 | -117.19790 | 24 ft | 0 kts | 278° |